首页
METAR-TAF:

METAR-TAF

机场 :

蘇黎世機場

苏黎世, 瑞士

纬度: 47-29N, 经度: 008-32E, 海拔: 436米

当前天气观测

该预报发布于7分钟前的06:50 UTC
风速6节,风向
温度 3°C
湿度 93%
气压 1006 hPa
能見度: 3500
少量云层高于700英尺
多云层高于5000英尺
小雨

METAR: LSZH 170650Z 35006KT 3500 -RA FEW007 BKN050 03/02 Q1006 NOSIG

时间: 07:57 (06:57 UTC)

预报

该预报发布于31分钟前的06:26 UTC
预报有效从17日的 06点(UTC)到 18日的 12点(UTC)
风速4节,风向北转西北
能見度: 4000
少量云层高于700英尺
散云层高于1200英尺
多云层高于3500英尺
小雨
短暂存在
从 17日的 06点(UTC)到 17日的 13点(UTC)
风速6节,风向北转东北
能見度: 2500
多云层高于700英尺
雨, 雪
几率 30% :
短暂存在
从 17日的 06点(UTC)到 17日的 11点(UTC)
能見度: 1000
多云层高于600英尺
成为
从 17日的 16点(UTC)到 17日的 19点(UTC)
多云层高于1500英尺
成为
从 17日的 18点(UTC)到 17日的 21点(UTC)
能見度: 4000
轻雾
几率 30%
从 17日的 21点(UTC)到 18日的 08点(UTC)
能見度: 2000
多云层高于200英尺
部分雾

TAF: LSZH 170626Z 1706/1812 33004KT 4000 -RA FEW007 SCT012 BKN035 TX03/1714Z TN02/1706Z TN02/1806Z TEMPO 1706/1713 02006KT 2500 RASN BKN007 PROB30 TEMPO 1706/1711 1000 SN BKN006 BECMG 1716/1719 NSW BKN015 BECMG 1718/1721 4000 BR PROB30 1721/1808 2000 PRFG BKN002

超过4000个机场的气象观测和天气预报(METAR&TAF报告)。

可查询的气象台以黄色和红色小点在地图上表示。

将鼠标移到小点上方,可查看气象台名称。

然后点击查看天气观测和预报。

如需切换地图:点击带黑十字的绿色按钮放大地图;点击带横线的绿色按钮缩小地图;或者点击绿色箭头查看邻近地区的地图。


METAR-TAF: